Time;durP1;ratioP1;P1;durP2;ratioP2;P2;SDS_P1;SDS_P2;PMS_P1;PMS_P2;Temp;Humidity;BMP_temperature;BMP_pressure;BME280_temperature;BME280_humidity;BME280_pressure;Samples;Min_cycle;Max_cycle;Signal;HPM_P1;HPM_P2
2022/07/01 00:00:45;;;;;;;6.05;5.10;;;;;;;21.68;76.20;99901.73;1687967;84;21023;-73
2022/07/01 00:03:13;;;;;;;5.70;4.87;;;;;;;21.68;76.83;99905.27;1727660;83;21072;-73
2022/07/01 00:05:40;;;;;;;4.47;4.17;;;;;;;21.77;75.71;99912.16;1717521;83;20984;-71
2022/07/01 00:08:08;;;;;;;6.30;5.62;;;;;;;21.89;75.05;99916.45;1696012;83;21117;-73
2022/07/01 00:10:37;;;;;;;5.72;5.08;;;;;;;21.97;75.49;99918.42;1710081;82;21246;-75
2022/07/01 00:13:06;;;;;;;6.83;4.83;;;;;;;22.01;75.11;99917.23;1711604;83;20889;-74
2022/07/01 00:15:33;;;;;;;6.58;5.95;;;;;;;21.99;75.06;99921.66;1680621;85;21020;-71
2022/07/01 00:17:59;;;;;;;6.17;5.67;;;;;;;21.89;75.39;99921.11;1691591;83;21027;-69
2022/07/01 00:20:26;;;;;;;6.37;5.75;;;;;;;21.81;75.83;99919.17;1710550;82;21567;-68
2022/07/01 00:22:53;;;;;;;6.95;5.28;;;;;;;21.79;76.11;99919.48;1673840;84;21322;-70
2022/07/01 00:25:22;;;;;;;6.47;5.87;;;;;;;21.87;75.20;99919.28;1710572;83;21588;-69
2022/07/01 00:27:48;;;;;;;6.67;4.53;;;;;;;22.02;75.06;99912.78;1709711;83;21097;-68
2022/07/01 00:30:15;;;;;;;6.03;4.72;;;;;;;22.17;74.50;99915.06;1697750;84;21072;-67
2022/07/01 00:32:43;;;;;;;4.58;4.17;;;;;;;22.32;73.21;99913.78;1710230;83;21501;-66
2022/07/01 00:35:12;;;;;;;4.37;4.03;;;;;;;22.50;71.42;99911.84;1710708;82;21353;-66
2022/07/01 00:37:39;;;;;;;3.95;3.62;;;;;;;22.65;70.49;99908.61;1696248;83;20918;-74
2022/07/01 00:40:08;;;;;;;4.97;4.12;;;;;;;22.78;69.76;99901.37;1705139;83;20957;-70
2022/07/01 00:42:40;;;;;;;4.90;4.30;;;;;;;22.88;67.39;99905.12;1710390;83;21032;-72
2022/07/01 00:45:09;;;;;;;5.17;4.58;;;;;;;22.94;66.87;99902.45;1728069;82;21060;-72
2022/07/01 00:47:37;;;;;;;7.10;4.40;;;;;;;22.95;66.80;99904.07;1707300;83;21095;-70
2022/07/01 00:50:09;;;;;;;4.83;4.33;;;;;;;22.96;67.25;99902.37;1709868;83;20984;-72
2022/07/01 00:52:36;;;;;;;6.10;3.45;;;;;;;22.95;67.06;99899.39;1724738;83;21055;-69
2022/07/01 00:55:04;;;;;;;4.37;3.95;;;;;;;22.97;67.23;99907.30;1728230;83;21018;-69
2022/07/01 00:57:31;;;;;;;3.67;3.27;;;;;;;22.97;67.21;99894.96;1716608;83;21516;-70
2022/07/01 00:59:58;;;;;;;5.78;3.87;;;;;;;22.98;67.45;99901.47;1710577;83;21240;-70
2022/07/01 01:02:25;;;;;;;4.15;3.85;;;;;;;22.97;67.24;99901.23;1710236;83;21036;-70
2022/07/01 01:04:52;;;;;;;6.22;5.20;;;;;;;22.99;66.92;99896.23;1710416;82;20987;-70
2022/07/01 01:07:18;;;;;;;5.17;4.47;;;;;;;23.01;66.12;99892.61;1692015;83;21008;-73
2022/07/01 01:09:47;;;;;;;5.83;4.05;;;;;;;23.06;65.83;99898.48;1687613;84;20983;-72
2022/07/01 01:12:14;;;;;;;5.25;4.37;;;;;;;23.10;65.57;99898.06;1693409;83;22087;-72
2022/07/01 01:14:49;;;;;;;4.75;4.40;;;;;;;23.13;65.46;99900.14;1710543;83;21043;-73
2022/07/01 01:17:16;;;;;;;5.53;4.33;;;;;;;23.13;65.44;99902.87;1710547;82;21056;-71
2022/07/01 01:19:43;;;;;;;5.80;4.35;;;;;;;23.18;65.40;99907.38;1696819;84;21049;-71
2022/07/01 01:22:11;;;;;;;6.17;4.45;;;;;;;23.24;65.19;99909.63;1709449;83;21021;-72
2022/07/01 01:24:39;;;;;;;4.08;3.67;;;;;;;23.24;65.34;99906.08;1719218;83;21486;-68
2022/07/01 01:27:05;;;;;;;4.40;4.03;;;;;;;23.23;65.57;99908.58;1691590;84;20938;-70
2022/07/01 01:29:32;;;;;;;9.28;4.03;;;;;;;23.22;65.61;99906.97;1695921;84;21146;-69
2022/07/01 01:31:59;;;;;;;4.10;3.80;;;;;;;23.22;65.49;99903.66;1702523;83;21012;-68
2022/07/01 01:34:26;;;;;;;5.37;4.08;;;;;;;23.24;65.51;99909.63;1710899;82;20944;-69
2022/07/01 01:36:52;;;;;;;7.20;4.72;;;;;;;23.28;65.04;99899.60;1709228;82;21157;-68
2022/07/01 01:39:19;;;;;;;9.68;5.40;;;;;;;23.29;65.65;99906.71;1708988;83;20924;-68
2022/07/01 01:41:46;;;;;;;5.60;5.10;;;;;;;23.26;66.22;99911.46;1708988;84;21016;-69
2022/07/01 01:44:13;;;;;;;5.60;4.83;;;;;;;23.23;66.07;99914.88;1709299;84;21505;-69
2022/07/01 01:46:40;;;;;;;10.68;4.87;;;;;;;23.24;65.81;99918.43;1709633;83;20956;-68
2022/07/01 01:49:08;;;;;;;6.00;5.42;;;;;;;23.22;66.15;99915.20;1696383;84;21271;-69
2022/07/01 01:51:36;;;;;;;6.22;4.78;;;;;;;23.20;66.43;99913.37;1710333;83;20929;-69
2022/07/01 01:54:03;;;;;;;5.72;5.10;;;;;;;23.20;66.69;99914.17;1697441;84;20953;-68
2022/07/01 01:56:30;;;;;;;5.97;5.58;;;;;;;23.22;67.05;99916.00;1693892;83;21040;-69
2022/07/01 01:58:58;;;;;;;5.60;5.05;;;;;;;23.10;67.42;99922.75;1697394;84;21030;-70
2022/07/01 02:01:26;;;;;;;7.97;7.20;;;;;;;22.72;69.51;99923.23;1710654;83;21162;-69
2022/07/01 02:03:53;;;;;;;8.85;6.05;;;;;;;22.29;71.22;99926.77;1710135;83;21003;-68
2022/07/01 02:06:20;;;;;;;6.03;5.42;;;;;;;22.12;71.53;99928.92;1693345;84;20932;-69
2022/07/01 02:08:48;;;;;;;5.47;4.97;;;;;;;22.13;71.59;99930.54;1697099;84;21146;-69
2022/07/01 02:11:14;;;;;;;9.43;5.47;;;;;;;22.20;71.22;99933.37;1706593;84;21032;-70
2022/07/01 02:13:41;;;;;;;5.97;5.47;;;;;;;22.20;71.09;99937.48;1706686;83;21009;-68
2022/07/01 02:16:08;;;;;;;7.45;5.67;;;;;;;22.14;71.24;99940.94;1708945;83;21572;-68
2022/07/01 02:18:35;;;;;;;6.40;5.80;;;;;;;22.08;71.76;99935.36;1710454;82;20967;-68
2022/07/01 02:21:03;;;;;;;11.38;6.30;;;;;;;22.03;72.26;99942.36;1697256;84;21115;-70
2022/07/01 02:23:29;;;;;;;7.47;6.87;;;;;;;21.69;74.74;99932.09;1667114;84;21245;-69
2022/07/01 02:25:56;;;;;;;6.47;5.87;;;;;;;21.42;76.43;99931.77;1711019;82;21008;-69
2022/07/01 02:28:23;;;;;;;10.43;7.42;;;;;;;21.19;77.97;99931.58;1710360;82;20957;-68
2022/07/01 02:30:50;;;;;;;8.65;7.85;;;;;;;21.10;79.70;99934.80;1697177;84;20977;-69
2022/07/01 02:33:17;;;;;;;9.73;7.67;;;;;;;21.25;79.42;99932.48;1710718;82;21529;-69
2022/07/01 02:35:43;;;;;;;17.00;7.60;;;;;;;21.54;78.78;99934.70;1696819;83;21010;-69
2022/07/01 02:38:10;;;;;;;10.13;6.25;;;;;;;21.78;77.40;99940.33;1710496;83;21347;-69
2022/07/01 02:40:40;;;;;;;7.30;6.60;;;;;;;21.89;76.38;99931.52;1652740;86;21023;-69
2022/07/01 02:43:07;;;;;;;7.45;6.35;;;;;;;21.97;75.68;99935.41;1669241;85;20972;-67
2022/07/01 02:45:35;;;;;;;7.15;6.58;;;;;;;22.04;75.31;99932.46;1702126;82;21019;-67
2022/07/01 02:48:02;;;;;;;8.40;7.03;;;;;;;22.09;75.09;99921.91;1709884;83;21496;-67
2022/07/01 02:50:29;;;;;;;7.00;6.05;;;;;;;22.18;75.27;99932.31;1709142;83;21086;-68
2022/07/01 02:52:56;;;;;;;8.75;5.83;;;;;;;22.32;75.01;99932.16;1697421;84;21494;-68
2022/07/01 02:55:22;;;;;;;7.20;6.50;;;;;;;22.38;75.41;99937.17;1716915;83;20929;-67
2022/07/01 02:57:51;;;;;;;6.62;5.92;;;;;;;22.44;76.13;99933.71;1673690;84;21061;-68
2022/07/01 03:00:19;;;;;;;7.15;6.47;;;;;;;22.51;76.31;99940.31;1681902;84;21024;-68
2022/07/01 03:02:46;;;;;;;7.78;7.08;;;;;;;22.57;76.12;99943.14;1669542;86;21239;-69
2022/07/01 03:05:12;;;;;;;7.70;6.42;;;;;;;22.61;76.34;99946.84;1689614;84;21060;-67
2022/07/01 03:07:39;;;;;;;8.00;6.67;;;;;;;22.64;76.28;99935.78;1705933;83;21557;-69
2022/07/01 03:10:08;;;;;;;6.97;6.28;;;;;;;22.62;76.54;99942.17;1706565;84;21344;-69
2022/07/01 03:12:35;;;;;;;6.58;6.05;;;;;;;22.60;77.33;99934.81;1706726;83;21025;-68
2022/07/01 03:15:11;;;;;;;7.87;6.10;;;;;;;22.66;77.90;99943.69;1710382;83;21150;-67
2022/07/01 03:17:39;;;;;;;7.33;6.72;;;;;;;22.71;78.23;99953.97;1670185;83;21499;-68
2022/07/01 03:20:09;;;;;;;7.33;6.62;;;;;;;22.76;78.37;99951.62;1655554;84;21383;-68
2022/07/01 03:22:36;;;;;;;9.10;6.15;;;;;;;22.79;78.45;99948.22;1667854;85;21961;-68
2022/07/01 03:25:04;;;;;;;7.25;6.65;;;;;;;22.82;79.41;99947.03;1688653;83;21013;-68
2022/07/01 03:27:31;;;;;;;7.33;6.70;;;;;;;22.84;79.98;99940.63;1694006;83;21218;-68
2022/07/01 03:29:58;;;;;;;7.67;6.97;;;;;;;22.86;80.41;99945.24;1697319;84;21502;-69
2022/07/01 03:32:24;;;;;;;7.95;7.05;;;;;;;22.89;80.39;99947.89;1697621;83;21028;-68
2022/07/01 03:34:52;;;;;;;8.70;6.87;;;;;;;22.93;80.50;99945.53;1697631;83;21481;-69
2022/07/01 03:37:20;;;;;;;7.33;6.25;;;;;;;22.96;80.48;99952.33;1697369;84;21099;-69
2022/07/01 03:39:47;;;;;;;7.33;6.62;;;;;;;22.97;80.17;99955.31;1680126;84;21075;-69
2022/07/01 03:42:14;;;;;;;6.37;5.80;;;;;;;22.99;80.03;99952.47;1680039;84;20996;-71
2022/07/01 03:44:41;;;;;;;6.47;5.87;;;;;;;23.01;79.84;99950.22;1679755;85;20935;-68
2022/07/01 03:47:07;;;;;;;11.28;5.97;;;;;;;23.03;79.50;99947.94;1697148;84;21040;-69
2022/07/01 03:49:34;;;;;;;10.38;6.35;;;;;;;23.04;79.18;99948.19;1706404;84;21009;-67
2022/07/01 03:52:03;;;;;;;8.70;6.47;;;;;;;23.06;78.80;99951.98;1679223;84;22060;-70
2022/07/01 03:54:29;;;;;;;8.60;5.85;;;;;;;23.08;78.58;99950.27;1664046;85;21018;-69
2022/07/01 03:56:59;;;;;;;9.55;6.42;;;;;;;23.10;78.24;99951.56;1697167;84;21561;-69
2022/07/01 03:59:27;;;;;;;6.87;6.33;;;;;;;23.14;77.83;99950.34;1706651;84;20941;-69
2022/07/01 04:01:54;;;;;;;8.60;5.75;;;;;;;23.15;77.41;99952.77;1680143;84;21053;-68
2022/07/01 04:04:22;;;;;;;7.05;6.45;;;;;;;23.18;77.07;99955.41;1679802;85;21133;-69
2022/07/01 04:06:49;;;;;;;6.58;6.08;;;;;;;23.17;75.89;99952.42;1697386;84;20941;-68
2022/07/01 04:09:16;;;;;;;7.15;5.78;;;;;;;23.19;75.60;99952.91;1706682;83;21048;-68
2022/07/01 04:11:43;;;;;;;6.40;5.80;;;;;;;23.20;75.15;99949.04;1710438;82;21007;-68
2022/07/01 04:14:10;;;;;;;8.08;5.90;;;;;;;23.24;74.93;99954.11;1697244;84;21541;-69
2022/07/01 04:16:38;;;;;;;6.20;5.62;;;;;;;23.30;74.74;99956.36;1710417;83;21234;-67
2022/07/01 04:19:05;;;;;;;7.72;5.97;;;;;;;23.35;74.49;99948.52;1710604;83;20979;-70
2022/07/01 04:24:17;;;;;;;5.45;5.00;;;;;;;23.46;73.96;99951.15;1657840;84;21043;-69
2022/07/01 04:26:44;;;;;;;5.90;5.40;;;;;;;23.53;73.49;99957.52;1684163;84;21135;-70
2022/07/01 04:29:11;;;;;;;6.83;6.22;;;;;;;23.57;73.08;99951.03;1713597;83;21501;-69
2022/07/01 04:31:39;;;;;;;6.60;5.45;;;;;;;23.63;72.93;99961.27;1728003;82;21050;-69
2022/07/01 04:34:07;;;;;;;7.55;5.70;;;;;;;23.68;72.82;99961.09;1709465;83;21457;-69
2022/07/01 04:36:34;;;;;;;10.95;5.90;;;;;;;23.76;72.56;99965.16;1705446;83;20996;-68
2022/07/01 04:39:02;;;;;;;6.83;4.72;;;;;;;23.85;72.21;99967.86;1698755;83;21146;-69
2022/07/01 04:44:14;;;;;;;5.42;5.03;;;;;;;24.04;71.39;99964.68;1699272;83;21453;-69
2022/07/01 04:46:41;;;;;;;4.95;4.20;;;;;;;24.13;70.52;99958.55;1698074;84;20989;-68
2022/07/01 04:49:09;;;;;;;6.00;5.50;;;;;;;24.22;69.89;99970.36;1697311;84;21492;-68
2022/07/01 04:51:36;;;;;;;5.17;4.72;;;;;;;24.28;68.49;99971.19;1668496;84;21160;-68
2022/07/01 04:54:04;;;;;;;5.75;5.25;;;;;;;24.33;67.76;99966.86;1695223;84;21881;-69
2022/07/01 04:56:32;;;;;;;6.65;6.05;;;;;;;24.39;67.32;99970.79;1699279;84;21095;-67
2022/07/01 04:59:00;;;;;;;11.10;4.60;;;;;;;24.42;67.13;99967.36;1702049;83;20981;-68
2022/07/01 05:01:27;;;;;;;4.65;4.25;;;;;;;24.46;66.17;99973.83;1703790;83;21348;-67
2022/07/01 05:03:55;;;;;;;4.97;4.58;;;;;;;24.50;65.38;99969.26;1699632;84;21073;-69
2022/07/01 05:06:22;;;;;;;6.28;5.70;;;;;;;24.54;65.11;99968.81;1702529;83;21202;-66
2022/07/01 05:08:49;;;;;;;7.45;4.97;;;;;;;24.57;64.91;99962.63;1669434;86;20993;-67
2022/07/01 05:11:16;;;;;;;5.15;4.60;;;;;;;24.58;64.99;99961.50;1696845;84;20973;-68
2022/07/01 05:13:44;;;;;;;9.45;5.45;;;;;;;24.62;65.23;99960.48;1696406;84;21021;-66
2022/07/01 05:16:11;;;;;;;5.33;4.80;;;;;;;24.69;65.43;99970.96;1698891;84;21056;-67
2022/07/01 05:24:08;;;;;;;5.35;4.85;;;;;;;24.76;63.89;99969.27;1691069;84;21057;-70
2022/07/01 05:26:35;;;;;;;5.58;5.17;;;;;;;24.76;63.81;99964.33;1697369;84;21224;-67
2022/07/01 05:29:02;;;;;;;7.37;5.05;;;;;;;24.78;64.23;99973.06;1697320;84;21537;-68
2022/07/01 05:31:29;;;;;;;5.08;4.67;;;;;;;24.78;64.23;99967.56;1697014;83;21251;-69
2022/07/01 05:33:57;;;;;;;7.03;4.85;;;;;;;24.79;64.74;99969.75;1688293;84;21031;-67
2022/07/01 05:36:23;;;;;;;5.22;4.83;;;;;;;24.83;64.79;99970.67;1669259;85;21001;-66
2022/07/01 05:38:50;;;;;;;7.05;5.10;;;;;;;24.85;64.80;99973.30;1693789;83;21573;-67
2022/07/01 05:41:17;;;;;;;6.28;5.03;;;;;;;24.87;64.57;99972.44;1695552;83;21016;-67
2022/07/01 05:43:44;;;;;;;11.55;5.85;;;;;;;24.89;64.48;99972.11;1696182;84;21113;-67
2022/07/01 05:46:10;;;;;;;5.72;5.15;;;;;;;24.92;64.32;99976.93;1698709;84;20980;-68
2022/07/01 05:48:37;;;;;;;5.62;5.22;;;;;;;24.96;64.43;99973.16;1699119;84;21075;-66
2022/07/01 05:51:04;;;;;;;6.50;5.90;;;;;;;25.00;64.57;99984.28;1698954;83;21683;-69
2022/07/01 05:53:31;;;;;;;6.08;5.58;;;;;;;25.02;64.35;99980.07;1697110;84;21084;-68
2022/07/01 05:55:58;;;;;;;6.10;5.60;;;;;;;25.05;64.44;99970.31;1697228;84;21147;-68
2022/07/01 05:58:24;;;;;;;8.85;5.62;;;;;;;25.09;64.66;99968.48;1697559;84;21060;-67
2022/07/01 06:00:51;;;;;;;6.08;5.58;;;;;;;25.14;65.20;99973.21;1696848;83;21474;-69
2022/07/01 06:03:18;;;;;;;7.53;5.40;;;;;;;25.17;65.77;99967.62;1698027;84;21028;-67
2022/07/01 06:05:45;;;;;;;9.48;6.08;;;;;;;25.22;65.89;99956.95;1669059;85;21573;-67
2022/07/01 06:08:11;;;;;;;8.15;5.87;;;;;;;25.27;65.72;99965.00;1696758;84;21252;-72
2022/07/01 06:10:39;;;;;;;7.22;6.62;;;;;;;25.30;66.10;99958.80;1696865;83;20957;-70
2022/07/01 06:13:06;;;;;;;6.42;5.83;;;;;;;25.34;66.03;99962.47;1698468;84;20972;-68
2022/07/01 06:15:33;;;;;;;6.20;5.60;;;;;;;25.37;65.70;99956.30;1697138;83;21716;-67
2022/07/01 06:17:59;;;;;;;7.42;5.67;;;;;;;25.40;65.31;99955.61;1698903;84;21035;-68
2022/07/01 06:20:27;;;;;;;6.83;6.22;;;;;;;25.45;65.78;99958.14;1697808;83;21242;-65
2022/07/01 06:22:53;;;;;;;6.03;5.55;;;;;;;25.50;65.70;99952.41;1668589;84;21037;-69
2022/07/01 06:25:20;;;;;;;7.03;6.33;;;;;;;25.53;65.73;99952.52;1670439;85;21031;-67
2022/07/01 06:27:47;;;;;;;5.45;4.95;;;;;;;25.56;65.76;99955.21;1670645;85;21577;-68
2022/07/01 06:30:13;;;;;;;5.67;5.28;;;;;;;25.60;65.44;99946.48;1670354;84;21102;-69
2022/07/01 06:32:41;;;;;;;5.70;5.30;;;;;;;25.63;64.57;99947.73;1681535;84;21101;-66
2022/07/01 06:35:09;;;;;;;6.67;5.00;;;;;;;25.71;64.63;99961.99;1678713;84;21624;-68
2022/07/01 06:37:36;;;;;;;8.10;5.30;;;;;;;25.73;62.92;99954.17;1691916;84;20950;-67
2022/07/01 06:40:05;;;;;;;6.00;5.42;;;;;;;25.75;61.61;99962.91;1703684;83;21023;-68
2022/07/01 06:42:33;;;;;;;5.58;5.08;;;;;;;25.77;61.78;99953.14;1660404;85;21508;-67
2022/07/01 06:45:00;;;;;;;6.10;5.28;;;;;;;25.76;61.98;99949.34;1688519;84;21272;-66
2022/07/01 06:47:27;;;;;;;6.00;5.47;;;;;;;25.78;61.73;99951.99;1703565;83;21572;-67
2022/07/01 06:49:54;;;;;;;5.87;5.33;;;;;;;25.81;60.95;99948.53;1703570;83;21363;-67
2022/07/01 06:52:21;;;;;;;6.10;5.35;;;;;;;25.84;60.85;99934.09;1685978;85;20998;-67
2022/07/01 06:54:47;;;;;;;5.75;5.20;;;;;;;25.88;60.22;99935.56;1705196;82;21392;-68
2022/07/01 06:57:15;;;;;;;8.43;5.25;;;;;;;25.93;60.47;99938.09;1675676;85;21321;-68
2022/07/01 06:59:42;;;;;;;6.83;5.40;;;;;;;25.97;59.88;99931.54;1660149;85;21051;-68
2022/07/01 07:02:09;;;;;;;5.92;5.47;;;;;;;26.01;58.61;99937.16;1692566;83;21075;-70
2022/07/01 07:04:36;;;;;;;5.50;5.05;;;;;;;25.98;58.40;99939.23;1685599;85;21052;-68
2022/07/01 07:07:04;;;;;;;7.28;5.62;;;;;;;26.00;58.76;99932.21;1702293;83;21123;-69
2022/07/01 07:09:30;;;;;;;5.53;5.10;;;;;;;26.08;58.62;99933.83;1686364;84;22951;-72
2022/07/01 07:11:58;;;;;;;5.62;4.75;;;;;;;26.16;58.13;99941.16;1686521;84;21135;-69
2022/07/01 07:14:25;;;;;;;5.10;4.60;;;;;;;26.23;58.11;99939.47;1703474;83;21023;-71
2022/07/01 07:16:54;;;;;;;6.60;5.95;;;;;;;26.32;58.07;99936.56;1704248;82;21072;-69
2022/07/01 07:19:20;;;;;;;7.37;5.42;;;;;;;26.40;58.49;99932.28;1688446;85;21053;-69
2022/07/01 07:21:47;;;;;;;6.53;5.83;;;;;;;26.47;58.26;99946.27;1703512;84;21141;-68
2022/07/01 07:24:14;;;;;;;7.40;6.70;;;;;;;26.50;58.08;99946.73;1677920;84;21314;-70
2022/07/01 07:26:41;;;;;;;11.70;6.05;;;;;;;26.51;58.47;99944.20;1677323;85;21111;-70
2022/07/01 07:29:08;;;;;;;7.37;6.65;;;;;;;26.47;58.37;99940.75;1710654;83;21040;-69
2022/07/01 07:31:36;;;;;;;6.62;5.87;;;;;;;26.49;58.84;99941.79;1718510;82;21662;-69
2022/07/01 07:34:03;;;;;;;6.80;6.12;;;;;;;26.53;59.17;99944.64;1718184;83;21127;-71
2022/07/01 07:36:29;;;;;;;6.72;6.10;;;;;;;26.61;58.33;99952.00;1717511;82;21088;-70
2022/07/01 07:38:58;;;;;;;6.95;6.17;;;;;;;26.66;57.81;99942.09;1722290;82;21492;-69
2022/07/01 07:41:25;;;;;;;7.33;6.60;;;;;;;26.66;56.58;99959.45;1695391;84;21022;-69
2022/07/01 07:43:54;;;;;;;8.05;5.90;;;;;;;26.67;56.67;99947.23;1706022;83;21064;-68
2022/07/01 07:46:21;;;;;;;6.28;5.78;;;;;;;26.66;55.27;99944.27;1698571;84;21180;-69
2022/07/01 07:48:47;;;;;;;5.78;5.08;;;;;;;26.55;55.50;99941.77;1702071;83;21017;-69
2022/07/01 07:51:17;;;;;;;6.62;6.03;;;;;;;26.53;54.45;99937.17;1680410;85;22279;-69
2022/07/01 07:53:43;;;;;;;7.45;6.75;;;;;;;26.59;55.30;99944.62;1697344;84;21064;-69
2022/07/01 07:56:10;;;;;;;7.87;6.25;;;;;;;26.62;56.31;99940.59;1705949;84;21604;-68
2022/07/01 07:58:36;;;;;;;8.73;7.80;;;;;;;26.67;56.12;99938.95;1702805;83;22839;-67
2022/07/01 08:01:03;;;;;;;10.53;8.30;;;;;;;26.75;56.28;99936.64;1695752;84;20986;-67
2022/07/01 08:03:30;;;;;;;9.58;8.33;;;;;;;26.80;56.99;99936.39;1696660;84;21150;-67
2022/07/01 08:05:57;;;;;;;13.28;8.08;;;;;;;26.83;57.92;99921.88;1710398;82;21019;-69
2022/07/01 08:08:24;;;;;;;8.13;7.08;;;;;;;26.84;57.43;99930.39;1699018;84;21005;-69
2022/07/01 08:10:51;;;;;;;6.72;6.22;;;;;;;26.86;57.36;99933.61;1719876;82;21144;-69
2022/07/01 08:13:18;;;;;;;7.47;6.78;;;;;;;26.84;55.43;99929.01;1696458;84;21100;-69
2022/07/01 08:15:45;;;;;;;6.58;6.08;;;;;;;26.88;55.49;99933.27;1697202;84;21092;-67
2022/07/01 08:18:12;;;;;;;7.65;6.72;;;;;;;26.93;55.21;99928.88;1706356;83;21048;-70
2022/07/01 08:20:39;;;;;;;6.47;5.97;;;;;;;27.02;55.48;99931.47;1710399;83;20936;-69
2022/07/01 08:23:06;;;;;;;7.05;6.35;;;;;;;27.00;55.43;99935.17;1707154;82;21775;-70
2022/07/01 08:25:32;;;;;;;8.05;5.50;;;;;;;26.99;55.04;99930.80;1697142;84;21529;-69
2022/07/01 08:27:59;;;;;;;5.08;4.67;;;;;;;27.00;54.39;99934.60;1706627;83;21583;-68
2022/07/01 08:30:26;;;;;;;8.98;5.58;;;;;;;27.04;53.78;99926.41;1728075;82;21028;-69
2022/07/01 08:32:53;;;;;;;13.08;5.90;;;;;;;27.05;53.63;99931.55;1718083;83;20992;-69
2022/07/01 08:35:20;;;;;;;5.80;4.22;;;;;;;27.07;53.35;99928.45;1695880;84;21970;-70
2022/07/01 08:37:46;;;;;;;5.62;4.78;;;;;;;27.11;52.93;99939.81;1693098;84;21016;-68
2022/07/01 08:40:13;;;;;;;5.47;5.08;;;;;;;27.15;52.72;99940.70;1703454;83;21040;-69
2022/07/01 08:42:42;;;;;;;4.75;4.30;;;;;;;27.19;51.80;99936.10;1704699;82;21092;-69
2022/07/01 08:45:09;;;;;;;5.10;4.67;;;;;;;27.18;51.30;99944.73;1703180;82;21544;-70
2022/07/01 08:47:50;;;;;;;3.95;3.30;;;;;;;27.14;51.02;99946.03;1703065;84;21306;-68
2022/07/01 08:50:17;;;;;;;4.20;3.90;;;;;;;27.12;50.92;99946.14;1697687;83;21063;-69
2022/07/01 08:52:43;;;;;;;12.50;5.53;;;;;;;27.05;51.14;99946.74;1690436;84;21005;-70
2022/07/01 08:55:10;;;;;;;5.55;4.08;;;;;;;27.04;51.26;99934.12;1702957;83;21071;-69
2022/07/01 08:57:37;;;;;;;4.65;3.85;;;;;;;27.12;51.12;99943.38;1677110;84;21062;-67
2022/07/01 09:00:09;;;;;;;9.45;3.35;;;;;;;27.21;50.39;99935.72;1694305;83;21155;-69
2022/07/01 09:02:56;;;;;;;;;;;;;;;27.32;49.72;99931.29;1683077;83;21056;-69
2022/07/01 09:05:24;;;;;;;3.70;3.40;;;;;;;27.40;49.45;99931.69;1703224;84;20091;-68
2022/07/01 09:08:02;;;;;;;3.60;3.27;;;;;;;27.44;49.07;99940.86;1688129;84;21065;-69
2022/07/01 09:10:31;;;;;;;8.88;3.45;;;;;;;27.49;48.99;99939.24;1712243;82;21056;-69
2022/07/01 09:12:59;;;;;;;4.05;3.67;;;;;;;27.58;48.05;99946.77;1702057;83;21120;-70
2022/07/01 09:15:30;;;;;;;4.83;3.27;;;;;;;27.61;47.78;99939.74;1679819;84;20968;-69
2022/07/01 09:18:20;;;;;;;4.30;3.87;;;;;;;27.62;47.40;99926.95;1700194;83;21056;-68
2022/07/01 09:20:52;;;;;;;2.98;2.72;;;;;;;27.62;47.29;99931.68;1705117;83;21134;-69
2022/07/01 09:23:18;;;;;;;9.28;4.12;;;;;;;27.67;47.44;99933.56;1701662;84;21000;-71
2022/07/01 09:25:50;;;;;;;4.58;3.45;;;;;;;27.78;47.37;99928.30;1700512;84;21156;-69
2022/07/01 09:28:20;;;;;;;4.03;3.65;;;;;;;27.86;45.99;99930.09;1715579;82;21025;-69
2022/07/01 09:30:56;;;;;;;5.90;3.67;;;;;;;27.87;46.41;99930.29;1703625;84;21063;-69
2022/07/01 09:33:25;;;;;;;4.55;4.15;;;;;;;27.90;46.62;99940.64;1703123;82;20952;-68
2022/07/01 09:35:52;;;;;;;3.85;3.55;;;;;;;27.97;46.05;99917.87;1681748;84;21018;-69
2022/07/01 09:38:22;;;;;;;3.75;3.45;;;;;;;28.05;45.54;99919.08;1676055;85;21613;-69
2022/07/01 09:40:54;;;;;;;4.78;3.90;;;;;;;28.03;44.80;99938.56;1687214;83;20950;-67
2022/07/01 09:43:27;;;;;;;5.90;2.80;;;;;;;27.98;44.86;99930.54;1685825;83;20977;-69
2022/07/01 09:45:59;;;;;;;6.62;4.53;;;;;;;28.00;45.08;99918.55;1687775;84;21053;-68
2022/07/01 09:48:38;;;;;;;3.22;2.92;;;;;;;28.11;44.96;99923.17;1702810;84;21048;-68
2022/07/01 09:51:07;;;;;;;3.62;3.00;;;;;;;28.16;44.36;99929.00;1663343;85;21796;-70
2022/07/01 09:53:35;;;;;;;5.40;2.83;;;;;;;28.15;44.83;99924.05;1702755;84;21091;-68
2022/07/01 09:56:01;;;;;;;4.58;3.00;;;;;;;28.02;44.03;99933.61;1703024;83;21521;-68
2022/07/01 09:58:28;;;;;;;5.42;3.08;;;;;;;28.02;44.13;99925.31;1689195;84;20986;-69
2022/07/01 10:00:55;;;;;;;6.90;6.25;;;;;;;28.01;43.92;99935.37;1702102;82;21536;-70
2022/07/01 10:03:22;;;;;;;3.25;3.00;;;;;;;28.00;43.70;99932.37;1702751;83;21053;-67
2022/07/01 10:06:10;;;;;;;3.33;3.10;;;;;;;27.99;44.05;99925.23;1688151;85;21085;-68
2022/07/01 10:09:00;;;;;;;4.37;3.02;;;;;;;28.01;43.98;99925.69;1703485;82;20968;-67
2022/07/01 10:11:44;;;;;;;4.50;3.22;;;;;;;28.00;43.75;99922.70;1691151;83;20936;-69
2022/07/01 10:14:13;;;;;;;4.22;3.10;;;;;;;27.97;43.99;99913.72;1688408;82;20988;-68
2022/07/01 10:16:40;;;;;;;5.45;3.52;;;;;;;27.94;44.47;99926.32;1687492;83;21251;-69
2022/07/01 10:19:25;;;;;;;3.85;3.20;;;;;;;27.87;44.29;99919.23;1712038;83;21000;-69
2022/07/01 10:21:56;;;;;;;3.37;2.20;;;;;;;27.81;44.33;99917.92;1670110;84;22258;-71
2022/07/01 10:24:23;;;;;;;3.87;2.75;;;;;;;27.86;44.18;99914.08;1675311;84;21045;-73
2022/07/01 10:26:51;;;;;;;6.03;3.20;;;;;;;27.95;44.25;99916.06;1660275;84;37766;-71
2022/07/01 10:29:33;;;;;;;3.50;3.20;;;;;;;28.05;44.27;99908.59;1674785;84;21091;-71
2022/07/01 10:32:12;;;;;;;7.65;3.35;;;;;;;28.17;43.34;99923.12;1655028;85;20987;-72
2022/07/01 10:34:41;;;;;;;4.03;3.25;;;;;;;28.31;43.32;99909.36;1673613;85;21091;-71
2022/07/01 10:37:11;;;;;;;4.97;3.67;;;;;;;28.43;43.08;99905.89;1674344;85;21044;-69
2022/07/01 10:40:01;;;;;;;2.98;2.77;;;;;;;28.50;42.80;99896.92;1659323;85;21018;-74
2022/07/01 10:42:36;;;;;;;4.17;2.92;;;;;;;28.53;42.93;99903.93;1660684;85;21019;-71
2022/07/01 10:45:09;;;;;;;7.97;3.25;;;;;;;28.56;42.85;99913.45;1643892;87;20968;-71
2022/07/01 10:47:37;;;;;;;3.12;2.92;;;;;;;28.60;43.05;99898.52;1675296;85;21008;-69
2022/07/01 10:50:16;;;;;;;6.75;3.10;;;;;;;28.65;42.55;99903.53;1661220;84;21132;-70
2022/07/01 10:53:02;;;;;;;4.35;3.83;;;;;;;28.71;42.52;99893.23;1687844;84;21090;-69
2022/07/01 10:55:38;;;;;;;3.00;2.80;;;;;;;28.83;42.62;99890.86;1685031;82;21789;-70
2022/07/01 10:58:07;;;;;;;3.05;2.58;;;;;;;28.86;41.80;99889.56;1732627;82;21003;-71
2022/07/01 11:00:35;;;;;;;5.75;2.92;;;;;;;28.84;42.29;99891.08;1704075;82;20944;-72
2022/07/01 11:03:11;;;;;;;3.22;2.90;;;;;;;28.91;42.06;99885.70;1689669;84;21052;-69
2022/07/01 11:05:39;;;;;;;6.33;5.28;;;;;;;28.96;42.01;99882.04;1669329;84;21017;-68
2022/07/01 11:08:06;;;;;;;3.00;2.80;;;;;;;29.07;41.80;99873.90;1668982;85;21768;-69
2022/07/01 11:10:34;;;;;;;3.12;2.92;;;;;;;29.09;41.39;99881.84;1680675;84;20975;-70
2022/07/01 11:13:02;;;;;;;4.00;3.25;;;;;;;29.00;41.09;99863.52;1703409;82;20940;-75
2022/07/01 11:15:30;;;;;;;4.50;3.70;;;;;;;28.92;41.56;99884.53;1688044;85;21046;-70
2022/07/01 11:17:57;;;;;;;4.33;2.85;;;;;;;28.87;41.33;99891.14;1687893;84;21019;-69
2022/07/01 11:20:25;;;;;;;4.35;2.58;;;;;;;28.79;41.32;99881.11;1688041;84;21149;-71
2022/07/01 11:22:52;;;;;;;4.47;3.47;;;;;;;28.83;41.85;99880.59;1687766;84;20915;-72
2022/07/01 11:25:20;;;;;;;3.45;2.52;;;;;;;28.89;41.16;99874.97;1687795;85;21036;-70
2022/07/01 11:27:50;;;;;;;2.72;2.52;;;;;;;28.82;41.58;99862.98;1686794;84;21017;-71
2022/07/01 11:30:18;;;;;;;3.00;2.70;;;;;;;28.85;41.48;99869.95;1684176;84;21110;-75
2022/07/01 11:32:51;;;;;;;3.52;2.70;;;;;;;28.90;40.96;99882.70;1699288;84;21104;-75
2022/07/01 11:41:08;;;;;;;11.65;6.85;;;;;;;29.19;40.47;99868.77;1702576;83;21489;-73
2022/07/01 11:43:38;;;;;;;3.58;3.37;;;;;;;29.25;40.52;99871.45;1702677;84;21537;-74
2022/07/01 11:46:06;;;;;;;4.03;2.95;;;;;;;29.27;40.19;99873.25;1703126;83;21225;-74
2022/07/01 11:48:41;;;;;;;8.28;2.87;;;;;;;29.23;40.93;99878.73;1690289;83;20979;-73
2022/07/01 11:51:18;;;;;;;7.30;3.20;;;;;;;29.25;40.88;99872.84;1679696;85;20981;-77
2022/07/01 11:53:48;;;;;;;5.42;4.65;;;;;;;29.32;41.20;99876.55;1685397;84;21507;-71
2022/07/01 11:56:15;;;;;;;7.78;2.77;;;;;;;29.36;40.43;99870.47;1703048;83;21046;-68